sensor_id;sensor_type;location;lat;lon;timestamp;P1;durP1;ratioP1;P2;durP2;ratioP2
6007;SDS011;3032;49.484;11.112;2022-08-27T00:00:30;12.60;;;8.43;;
6007;SDS011;3032;49.484;11.112;2022-08-27T00:02:55;9.60;;;8.70;;
6007;SDS011;3032;49.484;11.112;2022-08-27T00:05:21;10.27;;;8.10;;
6007;SDS011;3032;49.484;11.112;2022-08-27T00:07:47;10.90;;;7.97;;
6007;SDS011;3032;49.484;11.112;2022-08-27T00:10:15;15.80;;;10.80;;
6007;SDS011;3032;49.484;11.112;2022-08-27T00:12:42;13.00;;;8.40;;
6007;SDS011;3032;49.484;11.112;2022-08-27T00:15:09;14.83;;;11.07;;
6007;SDS011;3032;49.484;11.112;2022-08-27T00:17:35;11.05;;;9.77;;
6007;SDS011;3032;49.484;11.112;2022-08-27T00:20:02;14.10;;;12.55;;
6007;SDS011;3032;49.484;11.112;2022-08-27T00:22:29;18.23;;;10.32;;
6007;SDS011;3032;49.484;11.112;2022-08-27T00:24:54;15.50;;;11.93;;
6007;SDS011;3032;49.484;11.112;2022-08-27T00:27:20;17.17;;;13.20;;
6007;SDS011;3032;49.484;11.112;2022-08-27T00:29:46;17.60;;;13.73;;
6007;SDS011;3032;49.484;11.112;2022-08-27T00:32:12;20.55;;;15.55;;
6007;SDS011;3032;49.484;11.112;2022-08-27T00:34:37;12.00;;;9.37;;
6007;SDS011;3032;49.484;11.112;2022-08-27T00:37:04;12.50;;;11.13;;
6007;SDS011;3032;49.484;11.112;2022-08-27T00:39:30;12.90;;;11.15;;
6007;SDS011;3032;49.484;11.112;2022-08-27T00:41:57;15.18;;;11.07;;
6007;SDS011;3032;49.484;11.112;2022-08-27T00:44:24;15.50;;;11.88;;
6007;SDS011;3032;49.484;11.112;2022-08-27T00:46:52;14.82;;;9.85;;
6007;SDS011;3032;49.484;11.112;2022-08-27T00:51:57;15.10;;;13.25;;
6007;SDS011;3032;49.484;11.112;2022-08-27T00:54:28;17.58;;;15.50;;
6007;SDS011;3032;49.484;11.112;2022-08-27T00:56:54;19.30;;;13.43;;
6007;SDS011;3032;49.484;11.112;2022-08-27T00:59:23;21.15;;;14.45;;
6007;SDS011;3032;49.484;11.112;2022-08-27T01:01:53;18.35;;;14.95;;
6007;SDS011;3032;49.484;11.112;2022-08-27T01:04:37;20.38;;;14.50;;
6007;SDS011;3032;49.484;11.112;2022-08-27T01:07:04;21.35;;;15.05;;
6007;SDS011;3032;49.484;11.112;2022-08-27T01:09:30;16.80;;;13.37;;
6007;SDS011;3032;49.484;11.112;2022-08-27T01:11:57;19.83;;;12.85;;
6007;SDS011;3032;49.484;11.112;2022-08-27T01:14:23;13.55;;;11.52;;
6007;SDS011;3032;49.484;11.112;2022-08-27T01:16:50;18.83;;;12.07;;
6007;SDS011;3032;49.484;11.112;2022-08-27T01:24:51;15.00;;;12.40;;
6007;SDS011;3032;49.484;11.112;2022-08-27T01:27:21;24.17;;;13.55;;
6007;SDS011;3032;49.484;11.112;2022-08-27T01:29:49;17.05;;;13.05;;
6007;SDS011;3032;49.484;11.112;2022-08-27T01:32:20;15.33;;;13.40;;
6007;SDS011;3032;49.484;11.112;2022-08-27T01:34:51;22.23;;;14.40;;
6007;SDS011;3032;49.484;11.112;2022-08-27T01:37:18;27.20;;;16.55;;
6007;SDS011;3032;49.484;11.112;2022-08-27T01:39:45;18.45;;;13.20;;
6007;SDS011;3032;49.484;11.112;2022-08-27T01:42:18;13.35;;;11.40;;
6007;SDS011;3032;49.484;11.112;2022-08-27T01:44:49;12.07;;;10.88;;
6007;SDS011;3032;49.484;11.112;2022-08-27T01:47:20;13.32;;;11.05;;
6007;SDS011;3032;49.484;11.112;2022-08-27T01:49:48;27.70;;;15.57;;
6007;SDS011;3032;49.484;11.112;2022-08-27T01:52:16;24.38;;;15.82;;
6007;SDS011;3032;49.484;11.112;2022-08-27T01:54:43;27.17;;;18.00;;
6007;SDS011;3032;49.484;11.112;2022-08-27T01:57:09;27.63;;;16.70;;
6007;SDS011;3032;49.484;11.112;2022-08-27T01:59:35;15.77;;;14.00;;
6007;SDS011;3032;49.484;11.112;2022-08-27T02:02:02;17.27;;;15.02;;
6007;SDS011;3032;49.484;11.112;2022-08-27T02:04:29;21.00;;;15.68;;
6007;SDS011;3032;49.484;11.112;2022-08-27T02:06:56;23.90;;;15.68;;
6007;SDS011;3032;49.484;11.112;2022-08-27T02:09:22;21.38;;;16.50;;
6007;SDS011;3032;49.484;11.112;2022-08-27T02:11:48;14.15;;;10.82;;
6007;SDS011;3032;49.484;11.112;2022-08-27T02:14:14;22.23;;;16.67;;
6007;SDS011;3032;49.484;11.112;2022-08-27T02:16:40;26.73;;;16.33;;
6007;SDS011;3032;49.484;11.112;2022-08-27T02:19:05;25.15;;;15.95;;
6007;SDS011;3032;49.484;11.112;2022-08-27T02:21:32;21.55;;;13.55;;
6007;SDS011;3032;49.484;11.112;2022-08-27T02:23:58;29.40;;;17.67;;
6007;SDS011;3032;49.484;11.112;2022-08-27T02:26:23;39.20;;;22.23;;
6007;SDS011;3032;49.484;11.112;2022-08-27T02:28:49;20.57;;;15.00;;
6007;SDS011;3032;49.484;11.112;2022-08-27T02:31:15;20.50;;;14.30;;
6007;SDS011;3032;49.484;11.112;2022-08-27T02:33:42;20.45;;;14.40;;
6007;SDS011;3032;49.484;11.112;2022-08-27T02:36:08;32.73;;;20.40;;
6007;SDS011;3032;49.484;11.112;2022-08-27T02:38:33;15.60;;;11.50;;
6007;SDS011;3032;49.484;11.112;2022-08-27T02:40:59;17.27;;;14.23;;
6007;SDS011;3032;49.484;11.112;2022-08-27T02:43:25;23.03;;;17.20;;
6007;SDS011;3032;49.484;11.112;2022-08-27T02:45:50;20.47;;;14.30;;
6007;SDS011;3032;49.484;11.112;2022-08-27T02:48:16;29.03;;;18.97;;
6007;SDS011;3032;49.484;11.112;2022-08-27T02:50:42;24.17;;;16.50;;
6007;SDS011;3032;49.484;11.112;2022-08-27T02:53:09;25.40;;;18.17;;
6007;SDS011;3032;49.484;11.112;2022-08-27T02:55:35;21.02;;;14.57;;
6007;SDS011;3032;49.484;11.112;2022-08-27T02:58:01;21.47;;;15.10;;
6007;SDS011;3032;49.484;11.112;2022-08-27T03:00:26;14.80;;;10.20;;
6007;SDS011;3032;49.484;11.112;2022-08-27T03:02:53;12.80;;;11.20;;
6007;SDS011;3032;49.484;11.112;2022-08-27T03:05:19;17.02;;;13.98;;
6007;SDS011;3032;49.484;11.112;2022-08-27T03:07:45;27.83;;;16.92;;
6007;SDS011;3032;49.484;11.112;2022-08-27T03:10:13;19.87;;;15.17;;
6007;SDS011;3032;49.484;11.112;2022-08-27T03:12:39;18.60;;;13.88;;
6007;SDS011;3032;49.484;11.112;2022-08-27T03:15:06;19.85;;;15.55;;
6007;SDS011;3032;49.484;11.112;2022-08-27T03:17:35;17.92;;;14.40;;
6007;SDS011;3032;49.484;11.112;2022-08-27T03:20:19;17.50;;;14.77;;
6007;SDS011;3032;49.484;11.112;2022-08-27T03:22:45;15.00;;;13.37;;
6007;SDS011;3032;49.484;11.112;2022-08-27T03:25:11;13.83;;;12.40;;
6007;SDS011;3032;49.484;11.112;2022-08-27T03:27:37;23.30;;;14.98;;
6007;SDS011;3032;49.484;11.112;2022-08-27T03:30:08;19.02;;;14.77;;
6007;SDS011;3032;49.484;11.112;2022-08-27T03:32:40;18.67;;;15.07;;
6007;SDS011;3032;49.484;11.112;2022-08-27T03:35:06;17.35;;;14.55;;
6007;SDS011;3032;49.484;11.112;2022-08-27T03:37:33;18.05;;;13.43;;
6007;SDS011;3032;49.484;11.112;2022-08-27T03:39:59;23.67;;;15.55;;
6007;SDS011;3032;49.484;11.112;2022-08-27T03:42:24;19.57;;;14.57;;
6007;SDS011;3032;49.484;11.112;2022-08-27T03:44:50;17.73;;;12.53;;
6007;SDS011;3032;49.484;11.112;2022-08-27T03:47:16;18.17;;;13.63;;
6007;SDS011;3032;49.484;11.112;2022-08-27T03:49:42;28.70;;;16.65;;
6007;SDS011;3032;49.484;11.112;2022-08-27T03:52:08;22.60;;;17.40;;
6007;SDS011;3032;49.484;11.112;2022-08-27T03:54:35;11.15;;;9.48;;
6007;SDS011;3032;49.484;11.112;2022-08-27T03:57:01;11.60;;;8.05;;
6007;SDS011;3032;49.484;11.112;2022-08-27T03:59:28;12.02;;;10.80;;
6007;SDS011;3032;49.484;11.112;2022-08-27T04:01:54;13.90;;;10.13;;
6007;SDS011;3032;49.484;11.112;2022-08-27T04:04:20;12.30;;;10.33;;
6007;SDS011;3032;49.484;11.112;2022-08-27T04:06:47;17.13;;;12.45;;
6007;SDS011;3032;49.484;11.112;2022-08-27T04:09:13;15.65;;;10.90;;
6007;SDS011;3032;49.484;11.112;2022-08-27T04:11:39;11.30;;;10.13;;
6007;SDS011;3032;49.484;11.112;2022-08-27T04:14:05;12.30;;;11.00;;
6007;SDS011;3032;49.484;11.112;2022-08-27T04:16:32;12.75;;;11.18;;
6007;SDS011;3032;49.484;11.112;2022-08-27T04:18:58;14.60;;;12.88;;
6007;SDS011;3032;49.484;11.112;2022-08-27T04:21:24;14.03;;;10.90;;
6007;SDS011;3032;49.484;11.112;2022-08-27T04:23:50;17.05;;;13.05;;
6007;SDS011;3032;49.484;11.112;2022-08-27T04:26:16;14.80;;;12.40;;
6007;SDS011;3032;49.484;11.112;2022-08-27T04:28:42;17.75;;;13.32;;
6007;SDS011;3032;49.484;11.112;2022-08-27T04:31:08;18.45;;;13.80;;
6007;SDS011;3032;49.484;11.112;2022-08-27T04:33:33;19.17;;;14.53;;
6007;SDS011;3032;49.484;11.112;2022-08-27T04:36:00;19.33;;;14.20;;
6007;SDS011;3032;49.484;11.112;2022-08-27T04:38:28;17.27;;;13.30;;
6007;SDS011;3032;49.484;11.112;2022-08-27T04:40:53;16.10;;;11.30;;
6007;SDS011;3032;49.484;11.112;2022-08-27T04:43:38;15.40;;;10.85;;
6007;SDS011;3032;49.484;11.112;2022-08-27T04:46:04;15.27;;;13.30;;
6007;SDS011;3032;49.484;11.112;2022-08-27T04:48:30;32.67;;;17.30;;
6007;SDS011;3032;49.484;11.112;2022-08-27T04:50:56;21.13;;;14.68;;
6007;SDS011;3032;49.484;11.112;2022-08-27T04:53:21;22.90;;;15.80;;
6007;SDS011;3032;49.484;11.112;2022-08-27T04:55:48;18.03;;;14.03;;
6007;SDS011;3032;49.484;11.112;2022-08-27T04:58:16;18.77;;;14.80;;
6007;SDS011;3032;49.484;11.112;2022-08-27T05:00:43;20.10;;;16.13;;
6007;SDS011;3032;49.484;11.112;2022-08-27T05:03:12;21.10;;;14.43;;
6007;SDS011;3032;49.484;11.112;2022-08-27T05:05:39;16.67;;;13.15;;
6007;SDS011;3032;49.484;11.112;2022-08-27T05:08:06;16.05;;;11.40;;
6007;SDS011;3032;49.484;11.112;2022-08-27T05:11:06;19.60;;;13.77;;
6007;SDS011;3032;49.484;11.112;2022-08-27T05:13:24;18.48;;;14.02;;
6007;SDS011;3032;49.484;11.112;2022-08-27T05:15:56;19.05;;;14.65;;
6007;SDS011;3032;49.484;11.112;2022-08-27T05:18:24;24.27;;;16.45;;
6007;SDS011;3032;49.484;11.112;2022-08-27T05:20:50;19.75;;;13.60;;
6007;SDS011;3032;49.484;11.112;2022-08-27T05:23:17;19.10;;;15.47;;
6007;SDS011;3032;49.484;11.112;2022-08-27T05:25:44;18.63;;;14.55;;
6007;SDS011;3032;49.484;11.112;2022-08-27T05:28:12;18.38;;;13.00;;
6007;SDS011;3032;49.484;11.112;2022-08-27T05:30:43;16.35;;;12.50;;
6007;SDS011;3032;49.484;11.112;2022-08-27T05:33:11;13.13;;;10.60;;
6007;SDS011;3032;49.484;11.112;2022-08-27T05:35:45;15.52;;;10.90;;
6007;SDS011;3032;49.484;11.112;2022-08-27T05:38:13;16.55;;;10.65;;
6007;SDS011;3032;49.484;11.112;2022-08-27T05:40:39;19.52;;;12.73;;
6007;SDS011;3032;49.484;11.112;2022-08-27T05:43:05;16.45;;;12.77;;
6007;SDS011;3032;49.484;11.112;2022-08-27T05:45:31;13.13;;;10.63;;
6007;SDS011;3032;49.484;11.112;2022-08-27T05:47:57;10.93;;;9.82;;
6007;SDS011;3032;49.484;11.112;2022-08-27T05:50:24;10.57;;;7.50;;
6007;SDS011;3032;49.484;11.112;2022-08-27T05:52:50;12.65;;;11.32;;
6007;SDS011;3032;49.484;11.112;2022-08-27T05:55:16;11.95;;;10.65;;
6007;SDS011;3032;49.484;11.112;2022-08-27T05:57:42;10.83;;;9.80;;
6007;SDS011;3032;49.484;11.112;2022-08-27T06:00:08;11.97;;;10.67;;
6007;SDS011;3032;49.484;11.112;2022-08-27T06:02:52;13.43;;;10.55;;
6007;SDS011;3032;49.484;11.112;2022-08-27T06:05:18;11.53;;;10.27;;
6007;SDS011;3032;49.484;11.112;2022-08-27T06:07:44;9.63;;;8.63;;
6007;SDS011;3032;49.484;11.112;2022-08-27T06:10:09;16.67;;;12.77;;
6007;SDS011;3032;49.484;11.112;2022-08-27T06:12:35;12.48;;;10.40;;
6007;SDS011;3032;49.484;11.112;2022-08-27T06:15:02;15.80;;;13.38;;
6007;SDS011;3032;49.484;11.112;2022-08-27T06:17:28;15.82;;;10.30;;
6007;SDS011;3032;49.484;11.112;2022-08-27T06:19:54;18.10;;;12.63;;
6007;SDS011;3032;49.484;11.112;2022-08-27T06:22:20;9.20;;;8.30;;
6007;SDS011;3032;49.484;11.112;2022-08-27T06:24:46;15.90;;;10.97;;
6007;SDS011;3032;49.484;11.112;2022-08-27T06:27:13;19.20;;;13.20;;
6007;SDS011;3032;49.484;11.112;2022-08-27T06:29:41;18.40;;;13.13;;
6007;SDS011;3032;49.484;11.112;2022-08-27T06:32:07;12.52;;;8.52;;
6007;SDS011;3032;49.484;11.112;2022-08-27T06:34:34;14.38;;;10.65;;
6007;SDS011;3032;49.484;11.112;2022-08-27T06:37:00;15.35;;;12.45;;
6007;SDS011;3032;49.484;11.112;2022-08-27T06:39:25;19.43;;;15.10;;
6007;SDS011;3032;49.484;11.112;2022-08-27T06:41:51;19.42;;;14.63;;
6007;SDS011;3032;49.484;11.112;2022-08-27T06:44:17;17.43;;;13.40;;
6007;SDS011;3032;49.484;11.112;2022-08-27T06:46:44;16.80;;;14.77;;
6007;SDS011;3032;49.484;11.112;2022-08-27T06:49:10;18.37;;;13.97;;
6007;SDS011;3032;49.484;11.112;2022-08-27T06:51:37;18.45;;;15.15;;
6007;SDS011;3032;49.484;11.112;2022-08-27T06:54:05;23.77;;;15.75;;
6007;SDS011;3032;49.484;11.112;2022-08-27T06:56:32;20.95;;;16.60;;
6007;SDS011;3032;49.484;11.112;2022-08-27T06:58:59;15.27;;;11.40;;
6007;SDS011;3032;49.484;11.112;2022-08-27T07:01:31;15.15;;;11.20;;
6007;SDS011;3032;49.484;11.112;2022-08-27T07:04:02;21.80;;;16.13;;
6007;SDS011;3032;49.484;11.112;2022-08-27T07:06:30;20.27;;;15.38;;
6007;SDS011;3032;49.484;11.112;2022-08-27T07:08:56;23.48;;;15.32;;
6007;SDS011;3032;49.484;11.112;2022-08-27T07:11:23;22.73;;;17.15;;
6007;SDS011;3032;49.484;11.112;2022-08-27T07:13:49;22.50;;;17.10;;
6007;SDS011;3032;49.484;11.112;2022-08-27T07:16:17;21.10;;;16.07;;
6007;SDS011;3032;49.484;11.112;2022-08-27T07:18:44;21.38;;;14.05;;
6007;SDS011;3032;49.484;11.112;2022-08-27T07:21:11;21.60;;;16.25;;
6007;SDS011;3032;49.484;11.112;2022-08-27T07:23:37;22.80;;;14.23;;
6007;SDS011;3032;49.484;11.112;2022-08-27T07:26:07;24.33;;;17.10;;
6007;SDS011;3032;49.484;11.112;2022-08-27T07:28:34;19.85;;;16.77;;
6007;SDS011;3032;49.484;11.112;2022-08-27T07:31:02;22.80;;;17.48;;
6007;SDS011;3032;49.484;11.112;2022-08-27T07:33:33;17.88;;;15.60;;
6007;SDS011;3032;49.484;11.112;2022-08-27T07:35:59;24.05;;;17.67;;
6007;SDS011;3032;49.484;11.112;2022-08-27T07:38:25;18.37;;;15.67;;
6007;SDS011;3032;49.484;11.112;2022-08-27T07:40:51;21.77;;;16.57;;
6007;SDS011;3032;49.484;11.112;2022-08-27T07:43:17;26.93;;;16.93;;
6007;SDS011;3032;49.484;11.112;2022-08-27T07:46:01;18.77;;;14.20;;
6007;SDS011;3032;49.484;11.112;2022-08-27T07:48:27;17.27;;;14.25;;
6007;SDS011;3032;49.484;11.112;2022-08-27T07:50:53;25.73;;;17.75;;
6007;SDS011;3032;49.484;11.112;2022-08-27T07:53:19;19.67;;;15.53;;
6007;SDS011;3032;49.484;11.112;2022-08-27T07:55:45;22.83;;;16.83;;
6007;SDS011;3032;49.484;11.112;2022-08-27T07:58:11;29.47;;;18.27;;
6007;SDS011;3032;49.484;11.112;2022-08-27T08:00:41;26.70;;;17.67;;
6007;SDS011;3032;49.484;11.112;2022-08-27T08:03:08;23.35;;;17.15;;
6007;SDS011;3032;49.484;11.112;2022-08-27T08:05:35;21.67;;;15.13;;
6007;SDS011;3032;49.484;11.112;2022-08-27T08:08:00;27.73;;;18.37;;
6007;SDS011;3032;49.484;11.112;2022-08-27T08:10:27;30.73;;;19.55;;
6007;SDS011;3032;49.484;11.112;2022-08-27T08:12:53;31.77;;;19.87;;
6007;SDS011;3032;49.484;11.112;2022-08-27T08:15:18;29.20;;;20.30;;
6007;SDS011;3032;49.484;11.112;2022-08-27T08:17:44;37.10;;;20.73;;
6007;SDS011;3032;49.484;11.112;2022-08-27T08:20:10;32.85;;;19.20;;
6007;SDS011;3032;49.484;11.112;2022-08-27T08:22:37;28.70;;;20.50;;
6007;SDS011;3032;49.484;11.112;2022-08-27T08:25:03;26.95;;;19.75;;
6007;SDS011;3032;49.484;11.112;2022-08-27T08:27:30;27.67;;;18.50;;
6007;SDS011;3032;49.484;11.112;2022-08-27T08:29:57;24.48;;;17.92;;
6007;SDS011;3032;49.484;11.112;2022-08-27T08:32:23;24.92;;;18.35;;
6007;SDS011;3032;49.484;11.112;2022-08-27T08:34:49;23.83;;;17.60;;
6007;SDS011;3032;49.484;11.112;2022-08-27T08:37:14;16.10;;;12.50;;
6007;SDS011;3032;49.484;11.112;2022-08-27T08:39:41;24.13;;;16.67;;
6007;SDS011;3032;49.484;11.112;2022-08-27T08:42:08;22.52;;;15.35;;
6007;SDS011;3032;49.484;11.112;2022-08-27T08:44:52;19.25;;;15.43;;
6007;SDS011;3032;49.484;11.112;2022-08-27T08:47:23;15.27;;;12.30;;
6007;SDS011;3032;49.484;11.112;2022-08-27T08:55:23;19.33;;;15.30;;
6007;SDS011;3032;49.484;11.112;2022-08-27T09:00:43;17.23;;;12.90;;
6007;SDS011;3032;49.484;11.112;2022-08-27T09:03:11;14.90;;;12.07;;
6007;SDS011;3032;49.484;11.112;2022-08-27T09:05:39;15.70;;;12.98;;
6007;SDS011;3032;49.484;11.112;2022-08-27T09:13:34;16.15;;;13.00;;
6007;SDS011;3032;49.484;11.112;2022-08-27T09:16:04;17.52;;;13.30;;
6007;SDS011;3032;49.484;11.112;2022-08-27T09:18:30;14.70;;;11.10;;
6007;SDS011;3032;49.484;11.112;2022-08-27T09:21:02;16.75;;;14.43;;
6007;SDS011;3032;49.484;11.112;2022-08-27T09:23:49;14.93;;;12.32;;
6007;SDS011;3032;49.484;11.112;2022-08-27T09:26:27;17.88;;;14.05;;
6007;SDS011;3032;49.484;11.112;2022-08-27T09:28:55;16.17;;;12.27;;
6007;SDS011;3032;49.484;11.112;2022-08-27T09:34:18;14.85;;;11.82;;
6007;SDS011;3032;49.484;11.112;2022-08-27T09:36:52;16.67;;;12.30;;
6007;SDS011;3032;49.484;11.112;2022-08-27T09:39:31;13.80;;;11.45;;
6007;SDS011;3032;49.484;11.112;2022-08-27T09:42:07;12.25;;;10.48;;
6007;SDS011;3032;49.484;11.112;2022-08-27T09:44:46;13.48;;;11.18;;
6007;SDS011;3032;49.484;11.112;2022-08-27T09:47:12;12.80;;;11.50;;
6007;SDS011;3032;49.484;11.112;2022-08-27T09:49:40;14.00;;;11.77;;
6007;SDS011;3032;49.484;11.112;2022-08-27T09:52:06;14.25;;;12.43;;
6007;SDS011;3032;49.484;11.112;2022-08-27T09:54:39;16.73;;;12.63;;
6007;SDS011;3032;49.484;11.112;2022-08-27T09:57:08;13.30;;;11.27;;
6007;SDS011;3032;49.484;11.112;2022-08-27T09:59:50;11.55;;;10.25;;
6007;SDS011;3032;49.484;11.112;2022-08-27T10:02:21;12.63;;;11.13;;
6007;SDS011;3032;49.484;11.112;2022-08-27T10:07:30;14.40;;;10.63;;
6007;SDS011;3032;49.484;11.112;2022-08-27T10:10:12;11.75;;;10.52;;
6007;SDS011;3032;49.484;11.112;2022-08-27T10:12:58;10.15;;;9.13;;
6007;SDS011;3032;49.484;11.112;2022-08-27T10:15:52;11.20;;;10.18;;
6007;SDS011;3032;49.484;11.112;2022-08-27T10:18:30;12.13;;;10.10;;
6007;SDS011;3032;49.484;11.112;2022-08-27T10:21:28;11.85;;;10.65;;
6007;SDS011;3032;49.484;11.112;2022-08-27T10:24:22;12.55;;;11.32;;
6007;SDS011;3032;49.484;11.112;2022-08-27T10:29:58;8.70;;;7.85;;
6007;SDS011;3032;49.484;11.112;2022-08-27T10:35:44;7.57;;;6.97;;
6007;SDS011;3032;49.484;11.112;2022-08-27T10:38:55;6.78;;;6.18;;
6007;SDS011;3032;49.484;11.112;2022-08-27T10:41:42;7.72;;;7.10;;
6007;SDS011;3032;49.484;11.112;2022-08-27T10:49:30;8.00;;;7.20;;
6007;SDS011;3032;49.484;11.112;2022-08-27T10:54:37;5.50;;;5.10;;
6007;SDS011;3032;49.484;11.112;2022-08-27T10:57:19;5.10;;;4.70;;
6007;SDS011;3032;49.484;11.112;2022-08-27T11:02:47;5.25;;;4.75;;
6007;SDS011;3032;49.484;11.112;2022-08-27T11:07:50;5.95;;;5.55;;
6007;SDS011;3032;49.484;11.112;2022-08-27T11:11:22;5.00;;;4.60;;
6007;SDS011;3032;49.484;11.112;2022-08-27T11:13:31;5.00;;;4.70;;
6007;SDS011;3032;49.484;11.112;2022-08-27T11:16:00;3.90;;;3.70;;
6007;SDS011;3032;49.484;11.112;2022-08-27T11:18:41;4.55;;;4.20;;
6007;SDS011;3032;49.484;11.112;2022-08-27T11:21:26;5.45;;;4.32;;
6007;SDS011;3032;49.484;11.112;2022-08-27T11:26:40;3.78;;;3.47;;
6007;SDS011;3032;49.484;11.112;2022-08-27T11:29:11;5.00;;;4.70;;
6007;SDS011;3032;49.484;11.112;2022-08-27T11:31:57;8.27;;;4.82;;
6007;SDS011;3032;49.484;11.112;2022-08-27T11:44:57;4.50;;;4.10;;
6007;SDS011;3032;49.484;11.112;2022-08-27T11:47:32;4.35;;;4.00;;
6007;SDS011;3032;49.484;11.112;2022-08-27T11:49:59;3.83;;;3.63;;
6007;SDS011;3032;49.484;11.112;2022-08-27T11:52:32;3.90;;;3.60;;
6007;SDS011;3032;49.484;11.112;2022-08-27T11:57:36;4.15;;;3.85;;
6007;SDS011;3032;49.484;11.112;2022-08-27T12:00:13;4.03;;;3.72;;
6007;SDS011;3032;49.484;11.112;2022-08-27T12:02:55;3.33;;;3.13;;
6007;SDS011;3032;49.484;11.112;2022-08-27T12:05:32;3.70;;;3.50;;
6007;SDS011;3032;49.484;11.112;2022-08-27T12:07:58;3.75;;;3.55;;
6007;SDS011;3032;49.484;11.112;2022-08-27T12:10:28;3.58;;;3.47;;
6007;SDS011;3032;49.484;11.112;2022-08-27T12:13:22;3.03;;;2.92;;
6007;SDS011;3032;49.484;11.112;2022-08-27T12:16:05;3.42;;;3.28;;
6007;SDS011;3032;49.484;11.112;2022-08-27T12:21:34;3.63;;;3.40;;
6007;SDS011;3032;49.484;11.112;2022-08-27T12:27:12;3.05;;;2.95;;
6007;SDS011;3032;49.484;11.112;2022-08-27T12:29:52;2.50;;;2.40;;
6007;SDS011;3032;49.484;11.112;2022-08-27T12:32:31;3.15;;;3.05;;
6007;SDS011;3032;49.484;11.112;2022-08-27T12:35:12;2.92;;;2.83;;
6007;SDS011;3032;49.484;11.112;2022-08-27T12:37:44;3.40;;;3.20;;
6007;SDS011;3032;49.484;11.112;2022-08-27T12:42:48;3.00;;;2.90;;
6007;SDS011;3032;49.484;11.112;2022-08-27T12:45:21;3.47;;;3.20;;
6007;SDS011;3032;49.484;11.112;2022-08-27T12:47:49;3.15;;;3.05;;
6007;SDS011;3032;49.484;11.112;2022-08-27T12:50:24;3.50;;;3.30;;
6007;SDS011;3032;49.484;11.112;2022-08-27T12:55:54;3.15;;;2.95;;
6007;SDS011;3032;49.484;11.112;2022-08-27T12:58:40;4.45;;;3.47;;
6007;SDS011;3032;49.484;11.112;2022-08-27T13:01:28;3.20;;;2.75;;
6007;SDS011;3032;49.484;11.112;2022-08-27T13:04:20;3.75;;;3.45;;
6007;SDS011;3032;49.484;11.112;2022-08-27T13:06:49;3.40;;;3.20;;
6007;SDS011;3032;49.484;11.112;2022-08-27T13:09:15;3.10;;;3.00;;
6007;SDS011;3032;49.484;11.112;2022-08-27T13:11:49;3.15;;;2.80;;
6007;SDS011;3032;49.484;11.112;2022-08-27T13:14:21;3.00;;;2.80;;
6007;SDS011;3032;49.484;11.112;2022-08-27T13:17:02;4.75;;;4.15;;
6007;SDS011;3032;49.484;11.112;2022-08-27T13:19:43;3.90;;;3.53;;
6007;SDS011;3032;49.484;11.112;2022-08-27T13:22:28;4.38;;;4.18;;
6007;SDS011;3032;49.484;11.112;2022-08-27T13:25:02;4.20;;;3.88;;
6007;SDS011;3032;49.484;11.112;2022-08-27T13:27:34;4.90;;;4.55;;
6007;SDS011;3032;49.484;11.112;2022-08-27T13:30:04;3.95;;;3.58;;
6007;SDS011;3032;49.484;11.112;2022-08-27T13:32:32;3.70;;;3.50;;
6007;SDS011;3032;49.484;11.112;2022-08-27T13:34:58;3.72;;;3.53;;
6007;SDS011;3032;49.484;11.112;2022-08-27T13:37:26;4.00;;;3.72;;
6007;SDS011;3032;49.484;11.112;2022-08-27T13:39:57;3.80;;;3.42;;
6007;SDS011;3032;49.484;11.112;2022-08-27T13:42:23;3.33;;;3.13;;
6007;SDS011;3032;49.484;11.112;2022-08-27T13:44:50;4.45;;;3.10;;
6007;SDS011;3032;49.484;11.112;2022-08-27T13:47:21;3.47;;;3.28;;
6007;SDS011;3032;49.484;11.112;2022-08-27T13:49:49;4.93;;;3.30;;
6007;SDS011;3032;49.484;11.112;2022-08-27T13:52:29;2.95;;;2.75;;
6007;SDS011;3032;49.484;11.112;2022-08-27T13:55:08;5.25;;;3.50;;
6007;SDS011;3032;49.484;11.112;2022-08-27T13:57:47;4.10;;;3.65;;
6007;SDS011;3032;49.484;11.112;2022-08-27T14:00:31;4.70;;;4.32;;
6007;SDS011;3032;49.484;11.112;2022-08-27T14:02:57;4.40;;;4.10;;
6007;SDS011;3032;49.484;11.112;2022-08-27T14:08:13;5.00;;;4.60;;
6007;SDS011;3032;49.484;11.112;2022-08-27T14:13:40;5.55;;;5.07;;
6007;SDS011;3032;49.484;11.112;2022-08-27T14:16:13;4.78;;;4.35;;
6007;SDS011;3032;49.484;11.112;2022-08-27T14:19:07;4.80;;;4.47;;
6007;SDS011;3032;49.484;11.112;2022-08-27T14:21:36;5.40;;;4.78;;
6007;SDS011;3032;49.484;11.112;2022-08-27T14:24:03;5.38;;;4.90;;
6007;SDS011;3032;49.484;11.112;2022-08-27T14:26:30;5.07;;;4.78;;
6007;SDS011;3032;49.484;11.112;2022-08-27T14:28:56;5.07;;;4.65;;
6007;SDS011;3032;49.484;11.112;2022-08-27T14:31:22;5.75;;;5.20;;
6007;SDS011;3032;49.484;11.112;2022-08-27T14:33:48;6.97;;;5.15;;
6007;SDS011;3032;49.484;11.112;2022-08-27T14:36:16;8.45;;;6.80;;
6007;SDS011;3032;49.484;11.112;2022-08-27T14:38:43;16.47;;;7.90;;
6007;SDS011;3032;49.484;11.112;2022-08-27T14:41:11;10.02;;;5.35;;
6007;SDS011;3032;49.484;11.112;2022-08-27T14:43:38;11.68;;;5.80;;
6007;SDS011;3032;49.484;11.112;2022-08-27T14:46:03;8.30;;;7.40;;
6007;SDS011;3032;49.484;11.112;2022-08-27T14:48:32;12.27;;;6.90;;
6007;SDS011;3032;49.484;11.112;2022-08-27T14:50:58;4.95;;;4.53;;
6007;SDS011;3032;49.484;11.112;2022-08-27T14:53:27;5.35;;;4.40;;
6007;SDS011;3032;49.484;11.112;2022-08-27T14:55:52;6.80;;;4.60;;
6007;SDS011;3032;49.484;11.112;2022-08-27T14:58:19;6.10;;;5.57;;
6007;SDS011;3032;49.484;11.112;2022-08-27T15:00:46;7.30;;;5.38;;
6007;SDS011;3032;49.484;11.112;2022-08-27T15:03:12;5.95;;;5.35;;
6007;SDS011;3032;49.484;11.112;2022-08-27T15:05:38;8.80;;;6.53;;
6007;SDS011;3032;49.484;11.112;2022-08-27T15:08:03;7.10;;;6.40;;
6007;SDS011;3032;49.484;11.112;2022-08-27T15:10:29;6.23;;;5.73;;
6007;SDS011;3032;49.484;11.112;2022-08-27T15:12:55;8.07;;;4.95;;
6007;SDS011;3032;49.484;11.112;2022-08-27T15:15:22;6.45;;;5.35;;
6007;SDS011;3032;49.484;11.112;2022-08-27T15:17:48;6.88;;;5.25;;
6007;SDS011;3032;49.484;11.112;2022-08-27T15:20:14;5.83;;;4.83;;
6007;SDS011;3032;49.484;11.112;2022-08-27T15:22:41;5.43;;;4.18;;
6007;SDS011;3032;49.484;11.112;2022-08-27T15:25:08;4.22;;;3.83;;
6007;SDS011;3032;49.484;11.112;2022-08-27T15:27:34;4.93;;;4.53;;
6007;SDS011;3032;49.484;11.112;2022-08-27T15:30:02;3.85;;;3.55;;
6007;SDS011;3032;49.484;11.112;2022-08-27T15:32:30;3.95;;;3.53;;
6007;SDS011;3032;49.484;11.112;2022-08-27T15:34:59;3.40;;;3.10;;
6007;SDS011;3032;49.484;11.112;2022-08-27T15:37:29;5.07;;;3.85;;
6007;SDS011;3032;49.484;11.112;2022-08-27T15:39:55;3.53;;;3.22;;
6007;SDS011;3032;49.484;11.112;2022-08-27T15:42:21;4.30;;;3.20;;
6007;SDS011;3032;49.484;11.112;2022-08-27T15:44:48;3.17;;;2.95;;
6007;SDS011;3032;49.484;11.112;2022-08-27T15:47:16;3.53;;;3.22;;
6007;SDS011;3032;49.484;11.112;2022-08-27T15:49:42;3.47;;;3.17;;
6007;SDS011;3032;49.484;11.112;2022-08-27T15:52:09;3.72;;;3.42;;
6007;SDS011;3032;49.484;11.112;2022-08-27T15:54:36;3.67;;;3.38;;
6007;SDS011;3032;49.484;11.112;2022-08-27T15:57:03;4.20;;;3.75;;
6007;SDS011;3032;49.484;11.112;2022-08-27T15:59:31;4.38;;;4.18;;
6007;SDS011;3032;49.484;11.112;2022-08-27T16:01:57;5.30;;;4.80;;
6007;SDS011;3032;49.484;11.112;2022-08-27T16:04:24;4.82;;;4.30;;
6007;SDS011;3032;49.484;11.112;2022-08-27T16:06:50;6.07;;;5.57;;
6007;SDS011;3032;49.484;11.112;2022-08-27T16:09:16;6.20;;;5.70;;
6007;SDS011;3032;49.484;11.112;2022-08-27T16:11:42;5.90;;;5.50;;
6007;SDS011;3032;49.484;11.112;2022-08-27T16:14:09;8.63;;;6.97;;
6007;SDS011;3032;49.484;11.112;2022-08-27T16:16:39;7.10;;;6.05;;